sensor_id;sensor_type;location;lat;lon;timestamp;P1;durP1;ratioP1;P2;durP2;ratioP2
70322;SDS011;57735;56.264;43.898;2024-02-26T00:00:50;6.05;;;1.30;;
70322;SDS011;57735;56.264;43.898;2024-02-26T00:03:21;1.50;;;1.02;;
70322;SDS011;57735;56.264;43.898;2024-02-26T00:05:52;4.78;;;1.75;;
70322;SDS011;57735;56.264;43.898;2024-02-26T00:08:23;3.25;;;1.40;;
70322;SDS011;57735;56.264;43.898;2024-02-26T00:10:54;5.13;;;1.80;;
70322;SDS011;57735;56.264;43.898;2024-02-26T00:13:24;4.00;;;1.85;;
70322;SDS011;57735;56.264;43.898;2024-02-26T00:15:55;2.80;;;1.77;;
70322;SDS011;57735;56.264;43.898;2024-02-26T00:18:26;4.57;;;1.80;;
70322;SDS011;57735;56.264;43.898;2024-02-26T00:20:57;7.35;;;2.08;;
70322;SDS011;57735;56.264;43.898;2024-02-26T00:23:28;6.72;;;2.15;;
70322;SDS011;57735;56.264;43.898;2024-02-26T00:25:59;5.03;;;2.65;;
70322;SDS011;57735;56.264;43.898;2024-02-26T00:28:29;8.27;;;1.77;;
70322;SDS011;57735;56.264;43.898;2024-02-26T00:31:03;6.72;;;1.83;;
70322;SDS011;57735;56.264;43.898;2024-02-26T00:33:34;4.60;;;1.83;;
70322;SDS011;57735;56.264;43.898;2024-02-26T00:36:05;8.48;;;2.28;;
70322;SDS011;57735;56.264;43.898;2024-02-26T00:38:36;6.68;;;1.98;;
70322;SDS011;57735;56.264;43.898;2024-02-26T00:41:07;4.00;;;1.50;;
70322;SDS011;57735;56.264;43.898;2024-02-26T00:43:38;4.60;;;1.80;;
70322;SDS011;57735;56.264;43.898;2024-02-26T00:46:10;5.47;;;1.77;;
70322;SDS011;57735;56.264;43.898;2024-02-26T00:48:41;7.60;;;2.03;;
70322;SDS011;57735;56.264;43.898;2024-02-26T00:51:12;3.50;;;1.38;;
70322;SDS011;57735;56.264;43.898;2024-02-26T00:53:43;3.97;;;1.85;;
70322;SDS011;57735;56.264;43.898;2024-02-26T00:56:13;2.95;;;1.10;;
70322;SDS011;57735;56.264;43.898;2024-02-26T00:58:47;3.55;;;1.70;;
70322;SDS011;57735;56.264;43.898;2024-02-26T01:01:18;4.05;;;1.40;;
70322;SDS011;57735;56.264;43.898;2024-02-26T01:03:50;4.40;;;1.60;;
70322;SDS011;57735;56.264;43.898;2024-02-26T01:06:20;5.95;;;1.63;;
70322;SDS011;57735;56.264;43.898;2024-02-26T01:08:52;6.15;;;1.75;;
70322;SDS011;57735;56.264;43.898;2024-02-26T01:11:23;3.90;;;1.50;;
70322;SDS011;57735;56.264;43.898;2024-02-26T01:13:54;9.63;;;1.65;;
70322;SDS011;57735;56.264;43.898;2024-02-26T01:16:27;3.95;;;1.75;;
70322;SDS011;57735;56.264;43.898;2024-02-26T01:18:59;7.47;;;2.33;;
70322;SDS011;57735;56.264;43.898;2024-02-26T01:21:30;7.00;;;2.15;;
70322;SDS011;57735;56.264;43.898;2024-02-26T01:24:01;7.30;;;2.10;;
70322;SDS011;57735;56.264;43.898;2024-02-26T01:26:32;6.93;;;2.28;;
70322;SDS011;57735;56.264;43.898;2024-02-26T01:29:03;5.22;;;1.92;;
70322;SDS011;57735;56.264;43.898;2024-02-26T01:31:34;6.72;;;2.45;;
70322;SDS011;57735;56.264;43.898;2024-02-26T01:34:04;4.90;;;2.05;;
70322;SDS011;57735;56.264;43.898;2024-02-26T01:36:35;11.25;;;2.10;;
70322;SDS011;57735;56.264;43.898;2024-02-26T01:39:06;5.18;;;1.83;;
70322;SDS011;57735;56.264;43.898;2024-02-26T01:41:37;5.95;;;1.90;;
70322;SDS011;57735;56.264;43.898;2024-02-26T01:44:08;3.42;;;1.52;;
70322;SDS011;57735;56.264;43.898;2024-02-26T01:46:43;7.47;;;1.92;;
70322;SDS011;57735;56.264;43.898;2024-02-26T01:49:14;5.30;;;2.30;;
70322;SDS011;57735;56.264;43.898;2024-02-26T01:51:48;9.18;;;2.08;;
70322;SDS011;57735;56.264;43.898;2024-02-26T01:54:19;7.50;;;1.77;;
70322;SDS011;57735;56.264;43.898;2024-02-26T01:56:53;15.98;;;1.77;;
70322;SDS011;57735;56.264;43.898;2024-02-26T01:59:24;7.57;;;1.80;;
70322;SDS011;57735;56.264;43.898;2024-02-26T02:01:57;6.28;;;2.08;;
70322;SDS011;57735;56.264;43.898;2024-02-26T02:04:29;4.57;;;2.15;;
70322;SDS011;57735;56.264;43.898;2024-02-26T02:07:03;3.00;;;1.70;;
70322;SDS011;57735;56.264;43.898;2024-02-26T02:09:35;20.30;;;2.50;;
70322;SDS011;57735;56.264;43.898;2024-02-26T02:12:06;5.35;;;2.60;;
70322;SDS011;57735;56.264;43.898;2024-02-26T02:14:37;6.10;;;1.73;;
70322;SDS011;57735;56.264;43.898;2024-02-26T02:17:08;4.30;;;1.60;;
70322;SDS011;57735;56.264;43.898;2024-02-26T02:19:40;2.75;;;1.52;;
70322;SDS011;57735;56.264;43.898;2024-02-26T02:22:11;2.90;;;1.63;;
70322;SDS011;57735;56.264;43.898;2024-02-26T02:24:41;2.90;;;1.52;;
70322;SDS011;57735;56.264;43.898;2024-02-26T02:27:12;5.65;;;1.92;;
70322;SDS011;57735;56.264;43.898;2024-02-26T02:29:43;5.10;;;1.80;;
70322;SDS011;57735;56.264;43.898;2024-02-26T02:32:14;5.47;;;1.25;;
70322;SDS011;57735;56.264;43.898;2024-02-26T02:34:47;3.95;;;1.40;;
70322;SDS011;57735;56.264;43.898;2024-02-26T02:37:18;5.65;;;1.77;;
70322;SDS011;57735;56.264;43.898;2024-02-26T02:39:49;4.43;;;2.28;;
70322;SDS011;57735;56.264;43.898;2024-02-26T02:42:20;4.70;;;1.58;;
70322;SDS011;57735;56.264;43.898;2024-02-26T02:44:53;3.67;;;2.13;;
70322;SDS011;57735;56.264;43.898;2024-02-26T02:47:26;6.68;;;1.83;;
70322;SDS011;57735;56.264;43.898;2024-02-26T02:49:57;7.03;;;2.63;;
70322;SDS011;57735;56.264;43.898;2024-02-26T02:52:28;6.35;;;1.60;;
70322;SDS011;57735;56.264;43.898;2024-02-26T02:55:01;11.88;;;2.30;;
70322;SDS011;57735;56.264;43.898;2024-02-26T02:57:33;4.93;;;1.60;;
70322;SDS011;57735;56.264;43.898;2024-02-26T03:00:04;3.47;;;1.75;;
70322;SDS011;57735;56.264;43.898;2024-02-26T03:02:36;6.97;;;2.13;;
70322;SDS011;57735;56.264;43.898;2024-02-26T03:05:07;8.23;;;2.45;;
70322;SDS011;57735;56.264;43.898;2024-02-26T03:07:38;5.90;;;1.85;;
70322;SDS011;57735;56.264;43.898;2024-02-26T03:10:09;6.13;;;1.80;;
70322;SDS011;57735;56.264;43.898;2024-02-26T03:12:40;7.78;;;2.10;;
70322;SDS011;57735;56.264;43.898;2024-02-26T03:15:11;5.38;;;2.15;;
70322;SDS011;57735;56.264;43.898;2024-02-26T03:17:42;4.65;;;1.90;;
70322;SDS011;57735;56.264;43.898;2024-02-26T03:20:13;5.30;;;2.22;;
70322;SDS011;57735;56.264;43.898;2024-02-26T03:22:47;5.63;;;1.92;;
70322;SDS011;57735;56.264;43.898;2024-02-26T03:25:18;4.63;;;1.80;;
70322;SDS011;57735;56.264;43.898;2024-02-26T03:27:49;7.80;;;2.58;;
70322;SDS011;57735;56.264;43.898;2024-02-26T03:30:20;7.68;;;2.25;;
70322;SDS011;57735;56.264;43.898;2024-02-26T03:32:51;6.13;;;1.90;;
70322;SDS011;57735;56.264;43.898;2024-02-26T03:35:22;3.03;;;1.73;;
70322;SDS011;57735;56.264;43.898;2024-02-26T03:37:55;12.45;;;2.08;;
70322;SDS011;57735;56.264;43.898;2024-02-26T03:40:26;5.30;;;1.70;;
70322;SDS011;57735;56.264;43.898;2024-02-26T03:42:57;3.28;;;1.38;;
70322;SDS011;57735;56.264;43.898;2024-02-26T03:45:28;9.18;;;2.13;;
70322;SDS011;57735;56.264;43.898;2024-02-26T03:47:59;3.72;;;1.40;;
70322;SDS011;57735;56.264;43.898;2024-02-26T03:50:33;9.23;;;2.10;;
70322;SDS011;57735;56.264;43.898;2024-02-26T03:53:06;5.15;;;2.00;;
70322;SDS011;57735;56.264;43.898;2024-02-26T03:55:39;5.45;;;1.67;;
70322;SDS011;57735;56.264;43.898;2024-02-26T03:58:14;6.75;;;2.10;;
70322;SDS011;57735;56.264;43.898;2024-02-26T04:00:45;9.65;;;2.70;;
70322;SDS011;57735;56.264;43.898;2024-02-26T04:03:17;3.95;;;1.85;;
70322;SDS011;57735;56.264;43.898;2024-02-26T04:05:48;14.93;;;2.72;;
70322;SDS011;57735;56.264;43.898;2024-02-26T04:08:19;7.45;;;2.75;;
70322;SDS011;57735;56.264;43.898;2024-02-26T04:10:50;4.45;;;1.83;;
70322;SDS011;57735;56.264;43.898;2024-02-26T04:13:21;6.90;;;2.58;;
70322;SDS011;57735;56.264;43.898;2024-02-26T04:15:52;8.23;;;2.53;;
70322;SDS011;57735;56.264;43.898;2024-02-26T04:18:23;5.85;;;2.35;;
70322;SDS011;57735;56.264;43.898;2024-02-26T04:20:57;5.50;;;2.57;;
70322;SDS011;57735;56.264;43.898;2024-02-26T04:23:28;6.43;;;2.65;;
70322;SDS011;57735;56.264;43.898;2024-02-26T04:25:59;7.80;;;2.38;;
70322;SDS011;57735;56.264;43.898;2024-02-26T04:28:30;8.93;;;3.17;;
70322;SDS011;57735;56.264;43.898;2024-02-26T04:31:01;10.63;;;3.55;;
70322;SDS011;57735;56.264;43.898;2024-02-26T04:33:33;13.10;;;4.78;;
70322;SDS011;57735;56.264;43.898;2024-02-26T04:36:05;15.82;;;5.22;;
70322;SDS011;57735;56.264;43.898;2024-02-26T04:38:40;7.32;;;2.92;;
70322;SDS011;57735;56.264;43.898;2024-02-26T04:41:19;7.40;;;2.97;;
70322;SDS011;57735;56.264;43.898;2024-02-26T04:43:49;11.75;;;2.90;;
70322;SDS011;57735;56.264;43.898;2024-02-26T04:46:20;4.57;;;1.67;;
70322;SDS011;57735;56.264;43.898;2024-02-26T04:48:54;6.30;;;2.17;;
70322;SDS011;57735;56.264;43.898;2024-02-26T04:51:25;3.85;;;2.05;;
70322;SDS011;57735;56.264;43.898;2024-02-26T04:53:56;9.35;;;1.92;;
70322;SDS011;57735;56.264;43.898;2024-02-26T04:56:27;7.85;;;2.72;;
70322;SDS011;57735;56.264;43.898;2024-02-26T04:58:57;7.25;;;2.60;;
70322;SDS011;57735;56.264;43.898;2024-02-26T05:01:28;7.93;;;2.97;;
70322;SDS011;57735;56.264;43.898;2024-02-26T05:04:01;9.98;;;2.75;;
70322;SDS011;57735;56.264;43.898;2024-02-26T05:06:33;8.93;;;2.60;;
70322;SDS011;57735;56.264;43.898;2024-02-26T05:09:04;15.15;;;3.78;;
70322;SDS011;57735;56.264;43.898;2024-02-26T05:11:35;12.40;;;4.22;;
70322;SDS011;57735;56.264;43.898;2024-02-26T05:14:11;15.10;;;5.57;;
70322;SDS011;57735;56.264;43.898;2024-02-26T05:16:42;15.60;;;4.55;;
70322;SDS011;57735;56.264;43.898;2024-02-26T05:19:12;19.27;;;5.18;;
70322;SDS011;57735;56.264;43.898;2024-02-26T05:21:47;21.83;;;5.32;;
70322;SDS011;57735;56.264;43.898;2024-02-26T05:24:21;13.90;;;5.38;;
70322;SDS011;57735;56.264;43.898;2024-02-26T05:26:55;12.45;;;4.43;;
70322;SDS011;57735;56.264;43.898;2024-02-26T05:29:26;11.88;;;3.53;;
70322;SDS011;57735;56.264;43.898;2024-02-26T05:31:58;8.63;;;2.90;;
70322;SDS011;57735;56.264;43.898;2024-02-26T05:34:30;12.43;;;2.85;;
70322;SDS011;57735;56.264;43.898;2024-02-26T05:37:01;14.90;;;3.60;;
70322;SDS011;57735;56.264;43.898;2024-02-26T05:39:34;7.18;;;2.92;;
70322;SDS011;57735;56.264;43.898;2024-02-26T05:42:05;11.45;;;3.15;;
70322;SDS011;57735;56.264;43.898;2024-02-26T05:44:38;10.30;;;3.35;;
70322;SDS011;57735;56.264;43.898;2024-02-26T05:47:11;9.57;;;2.97;;
70322;SDS011;57735;56.264;43.898;2024-02-26T05:49:43;21.20;;;4.55;;
70322;SDS011;57735;56.264;43.898;2024-02-26T05:52:14;11.40;;;4.15;;
70322;SDS011;57735;56.264;43.898;2024-02-26T05:54:45;20.13;;;4.20;;
70322;SDS011;57735;56.264;43.898;2024-02-26T05:57:16;19.02;;;4.80;;
70322;SDS011;57735;56.264;43.898;2024-02-26T05:59:48;19.55;;;4.93;;
70322;SDS011;57735;56.264;43.898;2024-02-26T06:02:19;11.85;;;4.43;;
70322;SDS011;57735;56.264;43.898;2024-02-26T06:04:50;14.82;;;4.30;;
70322;SDS011;57735;56.264;43.898;2024-02-26T06:07:21;8.63;;;3.13;;
70322;SDS011;57735;56.264;43.898;2024-02-26T06:09:52;10.80;;;3.10;;
70322;SDS011;57735;56.264;43.898;2024-02-26T06:12:23;9.30;;;3.20;;
70322;SDS011;57735;56.264;43.898;2024-02-26T06:14:54;9.93;;;3.83;;
70322;SDS011;57735;56.264;43.898;2024-02-26T06:17:25;6.50;;;3.50;;
70322;SDS011;57735;56.264;43.898;2024-02-26T06:19:56;7.50;;;3.47;;
70322;SDS011;57735;56.264;43.898;2024-02-26T06:22:27;10.13;;;3.80;;
70322;SDS011;57735;56.264;43.898;2024-02-26T06:24:57;11.88;;;3.50;;
70322;SDS011;57735;56.264;43.898;2024-02-26T06:27:29;10.02;;;3.33;;
70322;SDS011;57735;56.264;43.898;2024-02-26T06:29:59;12.65;;;3.15;;
70322;SDS011;57735;56.264;43.898;2024-02-26T06:32:31;8.77;;;3.10;;
70322;SDS011;57735;56.264;43.898;2024-02-26T06:35:01;5.13;;;2.40;;
70322;SDS011;57735;56.264;43.898;2024-02-26T06:37:37;8.13;;;3.58;;
70322;SDS011;57735;56.264;43.898;2024-02-26T06:40:07;7.55;;;2.90;;
70322;SDS011;57735;56.264;43.898;2024-02-26T06:42:39;12.88;;;4.75;;
70322;SDS011;57735;56.264;43.898;2024-02-26T06:45:10;13.18;;;3.80;;
70322;SDS011;57735;56.264;43.898;2024-02-26T06:47:40;9.63;;;3.88;;
70322;SDS011;57735;56.264;43.898;2024-02-26T06:50:14;11.25;;;3.85;;
70322;SDS011;57735;56.264;43.898;2024-02-26T06:52:45;18.08;;;4.72;;
70322;SDS011;57735;56.264;43.898;2024-02-26T06:55:16;10.65;;;4.05;;
70322;SDS011;57735;56.264;43.898;2024-02-26T06:57:48;9.93;;;4.05;;
70322;SDS011;57735;56.264;43.898;2024-02-26T07:00:19;11.07;;;4.55;;
70322;SDS011;57735;56.264;43.898;2024-02-26T07:02:50;14.25;;;4.60;;
70322;SDS011;57735;56.264;43.898;2024-02-26T07:05:20;13.48;;;3.65;;
70322;SDS011;57735;56.264;43.898;2024-02-26T07:07:51;14.20;;;4.88;;
70322;SDS011;57735;56.264;43.898;2024-02-26T07:10:22;16.77;;;4.03;;
70322;SDS011;57735;56.264;43.898;2024-02-26T07:12:53;12.23;;;4.18;;
70322;SDS011;57735;56.264;43.898;2024-02-26T07:15:24;14.63;;;3.65;;
70322;SDS011;57735;56.264;43.898;2024-02-26T07:17:54;18.02;;;4.72;;
70322;SDS011;57735;56.264;43.898;2024-02-26T07:20:25;10.23;;;3.83;;
70322;SDS011;57735;56.264;43.898;2024-02-26T07:22:56;9.95;;;3.95;;
70322;SDS011;57735;56.264;43.898;2024-02-26T07:25:27;19.02;;;4.57;;
70322;SDS011;57735;56.264;43.898;2024-02-26T07:27:58;15.15;;;5.25;;
70322;SDS011;57735;56.264;43.898;2024-02-26T07:30:29;21.42;;;6.25;;
70322;SDS011;57735;56.264;43.898;2024-02-26T07:33:00;24.15;;;6.97;;
70322;SDS011;57735;56.264;43.898;2024-02-26T07:35:33;17.20;;;6.25;;
70322;SDS011;57735;56.264;43.898;2024-02-26T07:38:04;15.73;;;5.18;;
70322;SDS011;57735;56.264;43.898;2024-02-26T07:40:35;19.33;;;5.82;;
70322;SDS011;57735;56.264;43.898;2024-02-26T07:43:06;14.20;;;4.97;;
70322;SDS011;57735;56.264;43.898;2024-02-26T07:45:37;16.42;;;4.30;;
70322;SDS011;57735;56.264;43.898;2024-02-26T07:48:08;15.27;;;4.85;;
70322;SDS011;57735;56.264;43.898;2024-02-26T07:50:38;13.55;;;4.55;;
70322;SDS011;57735;56.264;43.898;2024-02-26T07:53:10;9.77;;;4.10;;
70322;SDS011;57735;56.264;43.898;2024-02-26T07:55:41;12.55;;;3.70;;
70322;SDS011;57735;56.264;43.898;2024-02-26T07:58:15;8.27;;;3.55;;
70322;SDS011;57735;56.264;43.898;2024-02-26T08:00:45;9.45;;;3.88;;
70322;SDS011;57735;56.264;43.898;2024-02-26T08:03:16;9.88;;;3.70;;
70322;SDS011;57735;56.264;43.898;2024-02-26T08:05:49;11.25;;;3.35;;
70322;SDS011;57735;56.264;43.898;2024-02-26T08:08:21;13.63;;;4.03;;
70322;SDS011;57735;56.264;43.898;2024-02-26T08:10:52;15.15;;;4.85;;
70322;SDS011;57735;56.264;43.898;2024-02-26T08:13:23;23.00;;;4.53;;
70322;SDS011;57735;56.264;43.898;2024-02-26T08:15:55;14.95;;;4.35;;
70322;SDS011;57735;56.264;43.898;2024-02-26T08:18:26;15.55;;;5.80;;
70322;SDS011;57735;56.264;43.898;2024-02-26T08:20:57;21.00;;;5.45;;
70322;SDS011;57735;56.264;43.898;2024-02-26T08:23:28;15.00;;;5.28;;
70322;SDS011;57735;56.264;43.898;2024-02-26T08:26:02;10.63;;;3.65;;
70322;SDS011;57735;56.264;43.898;2024-02-26T08:28:37;13.57;;;3.95;;
70322;SDS011;57735;56.264;43.898;2024-02-26T08:31:08;10.88;;;4.05;;
70322;SDS011;57735;56.264;43.898;2024-02-26T08:33:41;22.92;;;4.97;;
70322;SDS011;57735;56.264;43.898;2024-02-26T08:36:12;17.88;;;6.00;;
70322;SDS011;57735;56.264;43.898;2024-02-26T08:38:43;15.55;;;4.93;;
70322;SDS011;57735;56.264;43.898;2024-02-26T08:41:14;23.13;;;5.20;;
70322;SDS011;57735;56.264;43.898;2024-02-26T08:43:45;17.85;;;6.50;;
70322;SDS011;57735;56.264;43.898;2024-02-26T08:46:16;23.95;;;7.45;;
70322;SDS011;57735;56.264;43.898;2024-02-26T08:48:47;15.05;;;6.40;;
70322;SDS011;57735;56.264;43.898;2024-02-26T08:51:18;17.95;;;4.43;;
70322;SDS011;57735;56.264;43.898;2024-02-26T08:53:48;14.32;;;4.10;;
70322;SDS011;57735;56.264;43.898;2024-02-26T08:56:21;16.95;;;4.28;;
70322;SDS011;57735;56.264;43.898;2024-02-26T08:58:52;16.40;;;4.35;;
70322;SDS011;57735;56.264;43.898;2024-02-26T09:01:24;15.23;;;4.57;;
70322;SDS011;57735;56.264;43.898;2024-02-26T09:03:55;15.02;;;5.10;;
70322;SDS011;57735;56.264;43.898;2024-02-26T09:06:26;18.48;;;4.57;;
70322;SDS011;57735;56.264;43.898;2024-02-26T09:08:58;15.73;;;4.85;;
70322;SDS011;57735;56.264;43.898;2024-02-26T09:11:29;16.60;;;4.55;;
70322;SDS011;57735;56.264;43.898;2024-02-26T09:13:59;25.05;;;5.32;;
70322;SDS011;57735;56.264;43.898;2024-02-26T09:16:30;12.95;;;4.32;;
70322;SDS011;57735;56.264;43.898;2024-02-26T09:19:02;19.70;;;5.55;;
70322;SDS011;57735;56.264;43.898;2024-02-26T09:21:33;12.10;;;4.72;;
70322;SDS011;57735;56.264;43.898;2024-02-26T09:24:06;16.20;;;5.88;;
70322;SDS011;57735;56.264;43.898;2024-02-26T09:26:39;23.27;;;4.38;;
70322;SDS011;57735;56.264;43.898;2024-02-26T09:29:10;17.55;;;4.43;;
70322;SDS011;57735;56.264;43.898;2024-02-26T09:31:41;13.63;;;4.53;;
70322;SDS011;57735;56.264;43.898;2024-02-26T09:34:12;15.90;;;4.05;;
70322;SDS011;57735;56.264;43.898;2024-02-26T09:36:43;14.45;;;4.43;;
70322;SDS011;57735;56.264;43.898;2024-02-26T09:39:14;17.63;;;4.50;;
70322;SDS011;57735;56.264;43.898;2024-02-26T09:41:50;26.08;;;5.10;;
70322;SDS011;57735;56.264;43.898;2024-02-26T09:44:21;13.02;;;4.25;;
70322;SDS011;57735;56.264;43.898;2024-02-26T09:46:54;11.32;;;3.47;;
70322;SDS011;57735;56.264;43.898;2024-02-26T09:49:25;14.10;;;4.82;;
70322;SDS011;57735;56.264;43.898;2024-02-26T09:51:56;19.88;;;4.65;;
70322;SDS011;57735;56.264;43.898;2024-02-26T09:54:29;17.30;;;4.63;;
70322;SDS011;57735;56.264;43.898;2024-02-26T09:57:02;18.33;;;3.92;;
70322;SDS011;57735;56.264;43.898;2024-02-26T09:59:39;12.13;;;4.03;;
70322;SDS011;57735;56.264;43.898;2024-02-26T10:02:13;9.13;;;4.15;;
70322;SDS011;57735;56.264;43.898;2024-02-26T10:04:45;15.15;;;5.20;;
70322;SDS011;57735;56.264;43.898;2024-02-26T10:07:22;19.65;;;4.20;;
70322;SDS011;57735;56.264;43.898;2024-02-26T10:09:56;15.40;;;3.83;;
70322;SDS011;57735;56.264;43.898;2024-02-26T10:12:28;12.27;;;4.47;;
70322;SDS011;57735;56.264;43.898;2024-02-26T10:14:59;11.98;;;4.13;;
70322;SDS011;57735;56.264;43.898;2024-02-26T10:17:31;12.68;;;3.97;;
70322;SDS011;57735;56.264;43.898;2024-02-26T10:20:16;16.05;;;4.32;;
70322;SDS011;57735;56.264;43.898;2024-02-26T10:22:54;19.60;;;5.43;;
70322;SDS011;57735;56.264;43.898;2024-02-26T10:25:24;12.60;;;4.25;;
70322;SDS011;57735;56.264;43.898;2024-02-26T10:27:56;18.10;;;3.92;;
70322;SDS011;57735;56.264;43.898;2024-02-26T10:30:30;8.98;;;2.97;;
70322;SDS011;57735;56.264;43.898;2024-02-26T10:33:07;9.63;;;3.45;;
70322;SDS011;57735;56.264;43.898;2024-02-26T10:35:38;12.00;;;4.35;;
70322;SDS011;57735;56.264;43.898;2024-02-26T10:38:11;24.00;;;5.43;;
70322;SDS011;57735;56.264;43.898;2024-02-26T10:40:42;24.75;;;5.55;;
70322;SDS011;57735;56.264;43.898;2024-02-26T10:43:15;11.80;;;4.07;;
70322;SDS011;57735;56.264;43.898;2024-02-26T10:46:17;18.02;;;4.43;;
70322;SDS011;57735;56.264;43.898;2024-02-26T10:48:51;12.70;;;5.18;;
70322;SDS011;57735;56.264;43.898;2024-02-26T10:53:58;15.85;;;3.92;;
70322;SDS011;57735;56.264;43.898;2024-02-26T10:56:34;9.13;;;3.47;;
70322;SDS011;57735;56.264;43.898;2024-02-26T10:59:05;8.70;;;2.92;;
70322;SDS011;57735;56.264;43.898;2024-02-26T11:01:38;15.90;;;4.30;;
70322;SDS011;57735;56.264;43.898;2024-02-26T11:04:11;11.38;;;3.53;;
70322;SDS011;57735;56.264;43.898;2024-02-26T11:06:44;7.70;;;3.05;;
70322;SDS011;57735;56.264;43.898;2024-02-26T11:09:18;9.10;;;3.35;;
70322;SDS011;57735;56.264;43.898;2024-02-26T11:11:50;7.88;;;2.95;;
70322;SDS011;57735;56.264;43.898;2024-02-26T11:14:25;16.88;;;3.72;;
70322;SDS011;57735;56.264;43.898;2024-02-26T11:16:59;15.48;;;4.15;;
70322;SDS011;57735;56.264;43.898;2024-02-26T11:19:34;9.90;;;3.78;;
70322;SDS011;57735;56.264;43.898;2024-02-26T11:22:06;4.60;;;2.28;;
70322;SDS011;57735;56.264;43.898;2024-02-26T11:24:37;10.48;;;4.47;;
70322;SDS011;57735;56.264;43.898;2024-02-26T11:27:11;17.98;;;4.13;;
70322;SDS011;57735;56.264;43.898;2024-02-26T11:29:49;11.35;;;3.63;;
70322;SDS011;57735;56.264;43.898;2024-02-26T11:32:23;10.68;;;3.95;;
70322;SDS011;57735;56.264;43.898;2024-02-26T11:34:54;11.23;;;3.83;;
70322;SDS011;57735;56.264;43.898;2024-02-26T11:37:25;17.20;;;3.97;;
70322;SDS011;57735;56.264;43.898;2024-02-26T11:39:56;20.27;;;5.93;;
70322;SDS011;57735;56.264;43.898;2024-02-26T11:42:31;13.80;;;4.63;;
70322;SDS011;57735;56.264;43.898;2024-02-26T11:45:03;12.95;;;4.18;;
70322;SDS011;57735;56.264;43.898;2024-02-26T11:47:56;19.88;;;6.05;;
70322;SDS011;57735;56.264;43.898;2024-02-26T11:50:36;16.80;;;5.20;;
70322;SDS011;57735;56.264;43.898;2024-02-26T11:53:19;11.40;;;4.70;;
70322;SDS011;57735;56.264;43.898;2024-02-26T11:59:11;20.90;;;7.30;;
70322;SDS011;57735;56.264;43.898;2024-02-26T12:01:45;39.30;;;12.13;;
70322;SDS011;57735;56.264;43.898;2024-02-26T12:04:31;27.85;;;8.43;;
70322;SDS011;57735;56.264;43.898;2024-02-26T12:07:02;23.02;;;7.38;;
70322;SDS011;57735;56.264;43.898;2024-02-26T12:09:38;13.40;;;5.82;;
70322;SDS011;57735;56.264;43.898;2024-02-26T12:12:13;15.90;;;4.25;;
70322;SDS011;57735;56.264;43.898;2024-02-26T12:14:53;15.85;;;5.25;;
70322;SDS011;57735;56.264;43.898;2024-02-26T12:17:28;15.48;;;4.78;;
70322;SDS011;57735;56.264;43.898;2024-02-26T12:20:11;16.42;;;5.38;;
70322;SDS011;57735;56.264;43.898;2024-02-26T12:22:47;18.25;;;4.95;;
70322;SDS011;57735;56.264;43.898;2024-02-26T12:25:22;10.10;;;3.42;;
70322;SDS011;57735;56.264;43.898;2024-02-26T12:27:59;20.02;;;4.60;;
70322;SDS011;57735;56.264;43.898;2024-02-26T12:30:30;14.70;;;4.30;;
70322;SDS011;57735;56.264;43.898;2024-02-26T12:33:01;18.05;;;4.18;;
70322;SDS011;57735;56.264;43.898;2024-02-26T12:35:33;27.58;;;5.15;;
70322;SDS011;57735;56.264;43.898;2024-02-26T12:38:04;17.35;;;4.90;;
70322;SDS011;57735;56.264;43.898;2024-02-26T12:40:35;12.52;;;5.03;;
70322;SDS011;57735;56.264;43.898;2024-02-26T12:43:07;19.27;;;5.70;;
70322;SDS011;57735;56.264;43.898;2024-02-26T12:45:43;20.10;;;5.72;;
70322;SDS011;57735;56.264;43.898;2024-02-26T12:48:19;18.33;;;4.68;;
70322;SDS011;57735;56.264;43.898;2024-02-26T12:50:54;16.23;;;5.60;;
70322;SDS011;57735;56.264;43.898;2024-02-26T12:53:24;18.33;;;5.47;;
70322;SDS011;57735;56.264;43.898;2024-02-26T12:55:57;21.08;;;5.50;;
70322;SDS011;57735;56.264;43.898;2024-02-26T12:58:28;16.60;;;6.28;;
70322;SDS011;57735;56.264;43.898;2024-02-26T13:01:01;14.00;;;4.10;;
70322;SDS011;57735;56.264;43.898;2024-02-26T13:03:35;14.57;;;5.30;;
70322;SDS011;57735;56.264;43.898;2024-02-26T13:06:07;13.02;;;4.15;;
70322;SDS011;57735;56.264;43.898;2024-02-26T13:08:38;24.02;;;4.63;;
70322;SDS011;57735;56.264;43.898;2024-02-26T13:11:09;18.85;;;5.38;;
70322;SDS011;57735;56.264;43.898;2024-02-26T13:13:41;20.10;;;4.30;;
70322;SDS011;57735;56.264;43.898;2024-02-26T13:16:13;15.27;;;4.70;;
70322;SDS011;57735;56.264;43.898;2024-02-26T13:18:45;16.95;;;5.13;;
70322;SDS011;57735;56.264;43.898;2024-02-26T13:21:17;12.65;;;4.68;;
70322;SDS011;57735;56.264;43.898;2024-02-26T13:23:51;15.90;;;5.10;;
70322;SDS011;57735;56.264;43.898;2024-02-26T13:26:23;15.90;;;5.20;;
70322;SDS011;57735;56.264;43.898;2024-02-26T13:29:04;25.33;;;8.52;;
70322;SDS011;57735;56.264;43.898;2024-02-26T13:31:38;20.02;;;6.75;;
70322;SDS011;57735;56.264;43.898;2024-02-26T13:34:26;26.20;;;6.93;;
70322;SDS011;57735;56.264;43.898;2024-02-26T13:36:57;25.15;;;10.27;;
70322;SDS011;57735;56.264;43.898;2024-02-26T13:39:28;35.92;;;10.25;;
70322;SDS011;57735;56.264;43.898;2024-02-26T13:42:01;30.17;;;8.07;;
70322;SDS011;57735;56.264;43.898;2024-02-26T13:44:32;22.65;;;6.43;;
70322;SDS011;57735;56.264;43.898;2024-02-26T13:47:07;20.60;;;6.03;;
70322;SDS011;57735;56.264;43.898;2024-02-26T13:49:38;19.58;;;6.10;;
70322;SDS011;57735;56.264;43.898;2024-02-26T13:52:09;23.70;;;6.05;;
70322;SDS011;57735;56.264;43.898;2024-02-26T13:54:39;22.58;;;5.63;;
70322;SDS011;57735;56.264;43.898;2024-02-26T13:57:10;13.55;;;5.40;;
70322;SDS011;57735;56.264;43.898;2024-02-26T13:59:41;24.40;;;6.97;;
70322;SDS011;57735;56.264;43.898;2024-02-26T14:02:13;15.48;;;6.40;;
70322;SDS011;57735;56.264;43.898;2024-02-26T14:04:47;28.00;;;7.28;;
70322;SDS011;57735;56.264;43.898;2024-02-26T14:07:19;25.08;;;6.35;;
70322;SDS011;57735;56.264;43.898;2024-02-26T14:09:59;27.92;;;5.43;;
70322;SDS011;57735;56.264;43.898;2024-02-26T14:12:34;13.98;;;4.78;;
70322;SDS011;57735;56.264;43.898;2024-02-26T14:15:06;18.17;;;4.50;;
70322;SDS011;57735;56.264;43.898;2024-02-26T14:17:37;11.27;;;3.45;;
70322;SDS011;57735;56.264;43.898;2024-02-26T14:20:11;9.57;;;3.85;;
70322;SDS011;57735;56.264;43.898;2024-02-26T14:22:42;19.08;;;5.07;;
70322;SDS011;57735;56.264;43.898;2024-02-26T14:25:13;19.58;;;4.10;;
70322;SDS011;57735;56.264;43.898;2024-02-26T14:27:44;12.73;;;3.80;;
70322;SDS011;57735;56.264;43.898;2024-02-26T14:30:15;10.45;;;3.33;;
70322;SDS011;57735;56.264;43.898;2024-02-26T14:32:46;9.55;;;3.63;;
70322;SDS011;57735;56.264;43.898;2024-02-26T14:35:17;20.90;;;5.30;;
70322;SDS011;57735;56.264;43.898;2024-02-26T14:37:47;24.88;;;6.25;;
70322;SDS011;57735;56.264;43.898;2024-02-26T14:40:20;34.63;;;8.05;;
70322;SDS011;57735;56.264;43.898;2024-02-26T14:42:51;31.90;;;7.93;;
70322;SDS011;57735;56.264;43.898;2024-02-26T14:45:22;19.75;;;6.55;;
70322;SDS011;57735;56.264;43.898;2024-02-26T14:47:52;22.00;;;5.88;;
70322;SDS011;57735;56.264;43.898;2024-02-26T14:50:23;21.13;;;5.10;;
70322;SDS011;57735;56.264;43.898;2024-02-26T14:52:54;14.85;;;4.35;;
70322;SDS011;57735;56.264;43.898;2024-02-26T14:55:25;15.45;;;5.30;;
70322;SDS011;57735;56.264;43.898;2024-02-26T14:57:56;14.82;;;5.30;;
70322;SDS011;57735;56.264;43.898;2024-02-26T15:00:26;28.13;;;6.25;;